Riverton, Connecticut
Current Conditions -  °F | °C
As of 12:51 PM on Friday 21 Nov 2014 (Local Time) from KBDL Reporting Station
Broken Clouds Broken Clouds  
Wind Chill: 24°   Ceiling: 5500
Heat Index: 36°   Visibility: 10mi
Dew Point: 10°   Wind: 24mph
Humidity: 34%   Direction: 300°WNW
Pressure: 30.2"   Gusts: 31mph
Location:  41.96°N, 73.02°W
Report Text: KBDL 211751Z 30021G27KT 10SM BKN055 02/M12 A3020 RMK AO2 PK WND 32027/1745 SLP229 T00221122 10028 21044 53009
Loading
Personal Weather Stations






























Interactive Weather Map New forecast layout! Learn more

10-Day Weather Forecast

Advertisements
Track Severe Weather on mobile